sensor_id;sensor_type;location;lat;lon;timestamp;P1;durP1;ratioP1;P2;durP2;ratioP2
67798;SDS011;54596;43.216;27.904;2023-03-02T00:00:36;21.95;;;17.35;;
67798;SDS011;54596;43.216;27.904;2023-03-02T00:03:04;23.40;;;17.88;;
67798;SDS011;54596;43.216;27.904;2023-03-02T00:05:30;25.10;;;18.67;;
67798;SDS011;54596;43.216;27.904;2023-03-02T00:07:57;24.98;;;18.50;;
67798;SDS011;54596;43.216;27.904;2023-03-02T00:10:23;22.95;;;17.92;;
67798;SDS011;54596;43.216;27.904;2023-03-02T00:12:49;21.45;;;16.67;;
67798;SDS011;54596;43.216;27.904;2023-03-02T00:15:15;22.60;;;17.55;;
67798;SDS011;54596;43.216;27.904;2023-03-02T00:17:40;22.83;;;17.75;;
67798;SDS011;54596;43.216;27.904;2023-03-02T00:20:06;22.48;;;17.65;;
67798;SDS011;54596;43.216;27.904;2023-03-02T00:22:40;23.30;;;18.20;;
67798;SDS011;54596;43.216;27.904;2023-03-02T00:25:07;22.63;;;17.63;;
67798;SDS011;54596;43.216;27.904;2023-03-02T00:27:34;23.20;;;18.10;;
67798;SDS011;54596;43.216;27.904;2023-03-02T00:29:59;22.80;;;17.17;;
67798;SDS011;54596;43.216;27.904;2023-03-02T00:32:25;22.40;;;16.92;;
67798;SDS011;54596;43.216;27.904;2023-03-02T00:34:51;22.42;;;17.15;;
67798;SDS011;54596;43.216;27.904;2023-03-02T00:37:16;22.45;;;17.05;;
67798;SDS011;54596;43.216;27.904;2023-03-02T00:39:42;22.55;;;17.23;;
67798;SDS011;54596;43.216;27.904;2023-03-02T00:42:08;20.55;;;16.23;;
67798;SDS011;54596;43.216;27.904;2023-03-02T00:44:33;23.65;;;16.67;;
67798;SDS011;54596;43.216;27.904;2023-03-02T00:46:59;21.48;;;16.48;;
67798;SDS011;54596;43.216;27.904;2023-03-02T00:49:24;21.00;;;16.48;;
67798;SDS011;54596;43.216;27.904;2023-03-02T00:51:50;20.88;;;16.27;;
67798;SDS011;54596;43.216;27.904;2023-03-02T00:54:15;21.65;;;16.00;;
67798;SDS011;54596;43.216;27.904;2023-03-02T00:56:41;22.30;;;16.10;;
67798;SDS011;54596;43.216;27.904;2023-03-02T00:59:09;21.48;;;15.45;;
67798;SDS011;54596;43.216;27.904;2023-03-02T01:01:54;21.00;;;16.08;;
67798;SDS011;54596;43.216;27.904;2023-03-02T01:06:56;20.88;;;15.98;;
67798;SDS011;54596;43.216;27.904;2023-03-02T01:09:22;22.35;;;15.65;;
67798;SDS011;54596;43.216;27.904;2023-03-02T01:11:48;19.85;;;15.43;;
67798;SDS011;54596;43.216;27.904;2023-03-02T01:14:13;22.00;;;16.25;;
67798;SDS011;54596;43.216;27.904;2023-03-02T01:16:39;20.55;;;16.15;;
67798;SDS011;54596;43.216;27.904;2023-03-02T01:19:05;21.58;;;15.75;;
67798;SDS011;54596;43.216;27.904;2023-03-02T01:21:30;20.52;;;15.77;;
67798;SDS011;54596;43.216;27.904;2023-03-02T01:23:56;20.98;;;15.55;;
67798;SDS011;54596;43.216;27.904;2023-03-02T01:26:22;20.92;;;16.25;;
67798;SDS011;54596;43.216;27.904;2023-03-02T01:28:47;21.48;;;15.65;;
67798;SDS011;54596;43.216;27.904;2023-03-02T01:31:13;20.85;;;15.65;;
67798;SDS011;54596;43.216;27.904;2023-03-02T01:33:39;19.80;;;15.70;;
67798;SDS011;54596;43.216;27.904;2023-03-02T01:36:04;20.63;;;15.73;;
67798;SDS011;54596;43.216;27.904;2023-03-02T01:38:30;21.00;;;16.08;;
67798;SDS011;54596;43.216;27.904;2023-03-02T01:40:56;20.83;;;15.80;;
67798;SDS011;54596;43.216;27.904;2023-03-02T01:43:22;21.80;;;16.17;;
67798;SDS011;54596;43.216;27.904;2023-03-02T01:48:22;20.52;;;16.15;;
67798;SDS011;54596;43.216;27.904;2023-03-02T01:50:53;20.75;;;16.58;;
67798;SDS011;54596;43.216;27.904;2023-03-02T01:53:18;21.67;;;16.13;;
67798;SDS011;54596;43.216;27.904;2023-03-02T01:55:45;22.25;;;16.42;;
67798;SDS011;54596;43.216;27.904;2023-03-02T01:58:12;21.73;;;16.50;;
67798;SDS011;54596;43.216;27.904;2023-03-02T02:00:40;22.02;;;16.85;;
67798;SDS011;54596;43.216;27.904;2023-03-02T02:03:17;22.27;;;16.77;;
67798;SDS011;54596;43.216;27.904;2023-03-02T02:05:47;21.70;;;16.20;;
67798;SDS011;54596;43.216;27.904;2023-03-02T02:08:41;20.98;;;16.27;;
67798;SDS011;54596;43.216;27.904;2023-03-02T02:11:06;19.98;;;16.10;;
67798;SDS011;54596;43.216;27.904;2023-03-02T02:13:32;21.08;;;16.10;;
67798;SDS011;54596;43.216;27.904;2023-03-02T02:15:57;18.98;;;15.20;;
67798;SDS011;54596;43.216;27.904;2023-03-02T02:18:23;20.13;;;15.50;;
67798;SDS011;54596;43.216;27.904;2023-03-02T02:20:50;20.10;;;15.27;;
67798;SDS011;54596;43.216;27.904;2023-03-02T02:28:30;19.55;;;15.40;;
67798;SDS011;54596;43.216;27.904;2023-03-02T02:33:30;20.23;;;15.60;;
67798;SDS011;54596;43.216;27.904;2023-03-02T02:36:00;19.85;;;15.43;;
67798;SDS011;54596;43.216;27.904;2023-03-02T02:38:29;19.77;;;15.43;;
67798;SDS011;54596;43.216;27.904;2023-03-02T02:40:57;20.33;;;15.02;;
67798;SDS011;54596;43.216;27.904;2023-03-02T02:43:24;19.73;;;15.60;;
67798;SDS011;54596;43.216;27.904;2023-03-02T02:45:54;21.92;;;15.45;;
67798;SDS011;54596;43.216;27.904;2023-03-02T02:48:22;21.83;;;16.00;;
67798;SDS011;54596;43.216;27.904;2023-03-02T02:50:51;20.17;;;15.10;;
67798;SDS011;54596;43.216;27.904;2023-03-02T02:53:28;20.33;;;15.68;;
67798;SDS011;54596;43.216;27.904;2023-03-02T02:55:59;21.02;;;16.20;;
67798;SDS011;54596;43.216;27.904;2023-03-02T02:58:36;22.77;;;16.27;;
67798;SDS011;54596;43.216;27.904;2023-03-02T03:01:07;22.88;;;16.67;;
67798;SDS011;54596;43.216;27.904;2023-03-02T03:03:36;21.63;;;15.88;;
67798;SDS011;54596;43.216;27.904;2023-03-02T03:06:05;23.85;;;16.15;;
67798;SDS011;54596;43.216;27.904;2023-03-02T03:11:11;25.70;;;17.55;;
67798;SDS011;54596;43.216;27.904;2023-03-02T03:13:38;22.10;;;16.95;;
67798;SDS011;54596;43.216;27.904;2023-03-02T03:16:05;22.40;;;16.55;;
67798;SDS011;54596;43.216;27.904;2023-03-02T03:18:33;23.00;;;16.83;;
67798;SDS011;54596;43.216;27.904;2023-03-02T03:20:59;20.98;;;16.13;;
67798;SDS011;54596;43.216;27.904;2023-03-02T03:23:24;22.58;;;17.08;;
67798;SDS011;54596;43.216;27.904;2023-03-02T03:25:50;25.02;;;17.38;;
67798;SDS011;54596;43.216;27.904;2023-03-02T03:28:15;21.60;;;16.98;;
67798;SDS011;54596;43.216;27.904;2023-03-02T03:30:42;23.35;;;16.83;;
67798;SDS011;54596;43.216;27.904;2023-03-02T03:33:08;24.85;;;17.50;;
67798;SDS011;54596;43.216;27.904;2023-03-02T03:35:37;22.17;;;17.13;;
67798;SDS011;54596;43.216;27.904;2023-03-02T03:38:03;22.75;;;17.52;;
67798;SDS011;54596;43.216;27.904;2023-03-02T03:40:30;22.15;;;17.15;;
67798;SDS011;54596;43.216;27.904;2023-03-02T03:42:59;23.15;;;17.33;;
67798;SDS011;54596;43.216;27.904;2023-03-02T03:45:25;22.63;;;17.50;;
67798;SDS011;54596;43.216;27.904;2023-03-02T03:47:51;21.40;;;16.95;;
67798;SDS011;54596;43.216;27.904;2023-03-02T03:50:16;22.60;;;17.50;;
67798;SDS011;54596;43.216;27.904;2023-03-02T03:52:42;24.42;;;18.83;;
67798;SDS011;54596;43.216;27.904;2023-03-02T03:55:08;26.88;;;19.92;;
67798;SDS011;54596;43.216;27.904;2023-03-02T03:57:33;27.92;;;21.00;;
67798;SDS011;54596;43.216;27.904;2023-03-02T03:59:59;22.83;;;17.92;;
67798;SDS011;54596;43.216;27.904;2023-03-02T04:02:24;24.75;;;18.83;;
67798;SDS011;54596;43.216;27.904;2023-03-02T04:04:50;28.63;;;23.02;;
67798;SDS011;54596;43.216;27.904;2023-03-02T04:07:15;26.17;;;20.30;;
67798;SDS011;54596;43.216;27.904;2023-03-02T04:09:41;23.75;;;18.60;;
67798;SDS011;54596;43.216;27.904;2023-03-02T04:12:07;24.05;;;18.48;;
67798;SDS011;54596;43.216;27.904;2023-03-02T04:14:33;23.55;;;17.85;;
67798;SDS011;54596;43.216;27.904;2023-03-02T04:16:59;23.58;;;17.50;;
67798;SDS011;54596;43.216;27.904;2023-03-02T04:19:24;26.38;;;19.80;;
67798;SDS011;54596;43.216;27.904;2023-03-02T04:21:51;26.13;;;19.00;;
67798;SDS011;54596;43.216;27.904;2023-03-02T04:24:18;25.77;;;20.15;;
67798;SDS011;54596;43.216;27.904;2023-03-02T04:26:45;23.30;;;17.35;;
67798;SDS011;54596;43.216;27.904;2023-03-02T04:29:13;29.83;;;23.90;;
67798;SDS011;54596;43.216;27.904;2023-03-02T04:31:39;27.48;;;19.48;;
67798;SDS011;54596;43.216;27.904;2023-03-02T04:34:05;23.80;;;17.20;;
67798;SDS011;54596;43.216;27.904;2023-03-02T04:36:32;25.48;;;19.50;;
67798;SDS011;54596;43.216;27.904;2023-03-02T04:38:59;24.08;;;18.10;;
67798;SDS011;54596;43.216;27.904;2023-03-02T04:41:25;24.85;;;17.45;;
67798;SDS011;54596;43.216;27.904;2023-03-02T04:43:50;21.60;;;17.10;;
67798;SDS011;54596;43.216;27.904;2023-03-02T04:46:21;23.75;;;18.15;;
67798;SDS011;54596;43.216;27.904;2023-03-02T04:48:50;27.38;;;18.90;;
67798;SDS011;54596;43.216;27.904;2023-03-02T04:51:17;24.70;;;18.85;;
67798;SDS011;54596;43.216;27.904;2023-03-02T04:53:48;24.52;;;18.00;;
67798;SDS011;54596;43.216;27.904;2023-03-02T04:56:18;24.95;;;19.02;;
67798;SDS011;54596;43.216;27.904;2023-03-02T04:58:44;34.05;;;25.65;;
67798;SDS011;54596;43.216;27.904;2023-03-02T05:01:10;29.92;;;23.25;;
67798;SDS011;54596;43.216;27.904;2023-03-02T05:03:36;48.50;;;25.52;;
67798;SDS011;54596;43.216;27.904;2023-03-02T05:06:02;37.72;;;30.45;;
67798;SDS011;54596;43.216;27.904;2023-03-02T05:08:28;24.20;;;18.80;;
67798;SDS011;54596;43.216;27.904;2023-03-02T05:10:54;25.48;;;18.98;;
67798;SDS011;54596;43.216;27.904;2023-03-02T05:13:19;26.13;;;18.63;;
67798;SDS011;54596;43.216;27.904;2023-03-02T05:15:45;25.63;;;18.77;;
67798;SDS011;54596;43.216;27.904;2023-03-02T05:18:10;26.52;;;19.08;;
67798;SDS011;54596;43.216;27.904;2023-03-02T05:20:36;24.38;;;18.60;;
67798;SDS011;54596;43.216;27.904;2023-03-02T05:23:04;26.65;;;19.70;;
67798;SDS011;54596;43.216;27.904;2023-03-02T05:25:33;26.45;;;20.52;;
67798;SDS011;54596;43.216;27.904;2023-03-02T05:28:00;24.60;;;19.17;;
67798;SDS011;54596;43.216;27.904;2023-03-02T05:30:26;27.05;;;19.23;;
67798;SDS011;54596;43.216;27.904;2023-03-02T05:32:52;24.20;;;19.10;;
67798;SDS011;54596;43.216;27.904;2023-03-02T05:35:19;27.48;;;20.13;;
67798;SDS011;54596;43.216;27.904;2023-03-02T05:37:45;24.90;;;18.63;;
67798;SDS011;54596;43.216;27.904;2023-03-02T05:40:12;25.35;;;19.77;;
67798;SDS011;54596;43.216;27.904;2023-03-02T05:42:40;30.40;;;20.88;;
67798;SDS011;54596;43.216;27.904;2023-03-02T05:45:08;40.17;;;31.30;;
67798;SDS011;54596;43.216;27.904;2023-03-02T05:47:37;31.50;;;23.10;;
67798;SDS011;54596;43.216;27.904;2023-03-02T05:50:03;31.98;;;23.48;;
67798;SDS011;54596;43.216;27.904;2023-03-02T05:52:29;27.63;;;21.02;;
67798;SDS011;54596;43.216;27.904;2023-03-02T05:54:54;37.25;;;27.92;;
67798;SDS011;54596;43.216;27.904;2023-03-02T05:57:24;29.15;;;23.15;;
67798;SDS011;54596;43.216;27.904;2023-03-02T05:59:50;31.15;;;25.60;;
67798;SDS011;54596;43.216;27.904;2023-03-02T06:02:15;31.52;;;23.65;;
67798;SDS011;54596;43.216;27.904;2023-03-02T06:04:41;27.88;;;21.05;;
67798;SDS011;54596;43.216;27.904;2023-03-02T06:07:11;33.78;;;26.02;;
67798;SDS011;54596;43.216;27.904;2023-03-02T06:09:37;27.83;;;20.00;;
67798;SDS011;54596;43.216;27.904;2023-03-02T06:12:04;27.75;;;20.23;;
67798;SDS011;54596;43.216;27.904;2023-03-02T06:14:30;43.08;;;33.85;;
67798;SDS011;54596;43.216;27.904;2023-03-02T06:16:56;33.95;;;23.88;;
67798;SDS011;54596;43.216;27.904;2023-03-02T06:19:21;29.52;;;21.88;;
67798;SDS011;54596;43.216;27.904;2023-03-02T06:21:47;26.08;;;20.58;;
67798;SDS011;54596;43.216;27.904;2023-03-02T06:24:12;28.77;;;22.15;;
67798;SDS011;54596;43.216;27.904;2023-03-02T06:26:38;28.27;;;22.10;;
67798;SDS011;54596;43.216;27.904;2023-03-02T06:29:03;28.58;;;20.88;;
67798;SDS011;54596;43.216;27.904;2023-03-02T06:31:29;26.02;;;20.75;;
67798;SDS011;54596;43.216;27.904;2023-03-02T06:33:56;30.15;;;22.70;;
67798;SDS011;54596;43.216;27.904;2023-03-02T06:36:22;28.23;;;21.73;;
67798;SDS011;54596;43.216;27.904;2023-03-02T06:38:47;28.05;;;21.67;;
67798;SDS011;54596;43.216;27.904;2023-03-02T06:41:13;31.30;;;25.75;;
67798;SDS011;54596;43.216;27.904;2023-03-02T06:43:39;27.67;;;22.33;;
67798;SDS011;54596;43.216;27.904;2023-03-02T06:46:04;31.20;;;21.88;;
67798;SDS011;54596;43.216;27.904;2023-03-02T06:48:30;32.35;;;22.13;;
67798;SDS011;54596;43.216;27.904;2023-03-02T06:50:55;29.08;;;22.63;;
67798;SDS011;54596;43.216;27.904;2023-03-02T06:53:21;29.50;;;21.90;;
67798;SDS011;54596;43.216;27.904;2023-03-02T06:55:47;29.75;;;21.38;;
67798;SDS011;54596;43.216;27.904;2023-03-02T06:58:13;30.98;;;23.10;;
67798;SDS011;54596;43.216;27.904;2023-03-02T07:00:38;28.42;;;22.13;;
67798;SDS011;54596;43.216;27.904;2023-03-02T07:03:04;32.30;;;24.30;;
67798;SDS011;54596;43.216;27.904;2023-03-02T07:05:30;31.35;;;25.38;;
67798;SDS011;54596;43.216;27.904;2023-03-02T07:08:00;33.28;;;23.67;;
67798;SDS011;54596;43.216;27.904;2023-03-02T07:10:26;32.75;;;24.05;;
67798;SDS011;54596;43.216;27.904;2023-03-02T07:12:51;30.58;;;23.05;;
67798;SDS011;54596;43.216;27.904;2023-03-02T07:15:17;33.78;;;24.58;;
67798;SDS011;54596;43.216;27.904;2023-03-02T07:17:43;30.75;;;23.38;;
67798;SDS011;54596;43.216;27.904;2023-03-02T07:20:13;32.08;;;22.58;;
67798;SDS011;54596;43.216;27.904;2023-03-02T07:22:41;33.77;;;24.63;;
67798;SDS011;54596;43.216;27.904;2023-03-02T07:25:09;31.30;;;24.27;;
67798;SDS011;54596;43.216;27.904;2023-03-02T07:27:36;33.75;;;24.58;;
67798;SDS011;54596;43.216;27.904;2023-03-02T07:30:02;36.35;;;24.00;;
67798;SDS011;54596;43.216;27.904;2023-03-02T07:32:29;31.55;;;22.65;;
67798;SDS011;54596;43.216;27.904;2023-03-02T07:34:54;33.28;;;26.05;;
67798;SDS011;54596;43.216;27.904;2023-03-02T07:37:20;32.95;;;24.30;;
67798;SDS011;54596;43.216;27.904;2023-03-02T07:39:46;34.47;;;24.42;;
67798;SDS011;54596;43.216;27.904;2023-03-02T07:42:13;32.90;;;25.08;;
67798;SDS011;54596;43.216;27.904;2023-03-02T07:44:39;37.28;;;26.35;;
67798;SDS011;54596;43.216;27.904;2023-03-02T07:47:05;32.13;;;24.08;;
67798;SDS011;54596;43.216;27.904;2023-03-02T07:49:31;34.97;;;25.02;;
67798;SDS011;54596;43.216;27.904;2023-03-02T07:51:56;40.53;;;25.25;;
67798;SDS011;54596;43.216;27.904;2023-03-02T07:54:22;35.38;;;24.92;;
67798;SDS011;54596;43.216;27.904;2023-03-02T07:56:50;36.88;;;24.90;;
67798;SDS011;54596;43.216;27.904;2023-03-02T07:59:16;34.30;;;26.08;;
67798;SDS011;54596;43.216;27.904;2023-03-02T08:01:41;38.08;;;23.95;;
67798;SDS011;54596;43.216;27.904;2023-03-02T08:04:07;33.95;;;24.48;;
67798;SDS011;54596;43.216;27.904;2023-03-02T08:06:32;38.25;;;25.45;;
67798;SDS011;54596;43.216;27.904;2023-03-02T08:09:00;36.22;;;24.95;;
67798;SDS011;54596;43.216;27.904;2023-03-02T08:11:26;37.67;;;25.73;;
67798;SDS011;54596;43.216;27.904;2023-03-02T08:13:51;36.22;;;25.27;;
67798;SDS011;54596;43.216;27.904;2023-03-02T08:16:17;39.28;;;25.83;;
67798;SDS011;54596;43.216;27.904;2023-03-02T08:18:42;34.13;;;25.55;;
67798;SDS011;54596;43.216;27.904;2023-03-02T08:21:15;33.85;;;25.02;;
67798;SDS011;54596;43.216;27.904;2023-03-02T08:23:42;33.38;;;25.38;;
67798;SDS011;54596;43.216;27.904;2023-03-02T08:26:08;40.10;;;26.45;;
67798;SDS011;54596;43.216;27.904;2023-03-02T08:28:34;42.50;;;26.38;;
67798;SDS011;54596;43.216;27.904;2023-03-02T08:31:00;35.53;;;26.08;;
67798;SDS011;54596;43.216;27.904;2023-03-02T08:33:27;34.75;;;27.20;;
67798;SDS011;54596;43.216;27.904;2023-03-02T08:36:03;38.78;;;26.83;;
67798;SDS011;54596;43.216;27.904;2023-03-02T08:38:31;37.38;;;26.60;;
67798;SDS011;54596;43.216;27.904;2023-03-02T08:40:57;43.67;;;29.02;;
67798;SDS011;54596;43.216;27.904;2023-03-02T08:43:26;37.90;;;26.83;;
67798;SDS011;54596;43.216;27.904;2023-03-02T08:45:52;38.58;;;27.30;;
67798;SDS011;54596;43.216;27.904;2023-03-02T08:48:19;40.17;;;28.23;;
67798;SDS011;54596;43.216;27.904;2023-03-02T08:51:07;41.40;;;29.77;;
67798;SDS011;54596;43.216;27.904;2023-03-02T08:53:34;43.75;;;30.45;;
67798;SDS011;54596;43.216;27.904;2023-03-02T08:56:02;42.50;;;29.33;;
67798;SDS011;54596;43.216;27.904;2023-03-02T08:58:28;37.80;;;26.80;;
67798;SDS011;54596;43.216;27.904;2023-03-02T09:00:54;41.97;;;27.95;;
67798;SDS011;54596;43.216;27.904;2023-03-02T09:03:19;39.78;;;28.08;;
67798;SDS011;54596;43.216;27.904;2023-03-02T09:05:45;41.35;;;28.17;;
67798;SDS011;54596;43.216;27.904;2023-03-02T09:08:11;36.92;;;26.40;;
67798;SDS011;54596;43.216;27.904;2023-03-02T09:10:37;48.92;;;30.08;;
67798;SDS011;54596;43.216;27.904;2023-03-02T09:13:03;40.88;;;26.65;;
67798;SDS011;54596;43.216;27.904;2023-03-02T09:15:28;45.53;;;27.90;;
67798;SDS011;54596;43.216;27.904;2023-03-02T09:17:54;44.78;;;28.38;;
67798;SDS011;54596;43.216;27.904;2023-03-02T09:20:19;38.83;;;27.35;;
67798;SDS011;54596;43.216;27.904;2023-03-02T09:22:45;44.05;;;28.05;;
67798;SDS011;54596;43.216;27.904;2023-03-02T09:25:14;36.80;;;26.30;;
67798;SDS011;54596;43.216;27.904;2023-03-02T09:27:42;41.38;;;25.27;;
67798;SDS011;54596;43.216;27.904;2023-03-02T09:30:08;38.78;;;23.80;;
67798;SDS011;54596;43.216;27.904;2023-03-02T09:32:34;36.75;;;23.27;;
67798;SDS011;54596;43.216;27.904;2023-03-02T09:35:00;32.35;;;22.33;;
67798;SDS011;54596;43.216;27.904;2023-03-02T09:37:28;40.70;;;24.77;;
67798;SDS011;54596;43.216;27.904;2023-03-02T09:39:54;33.60;;;21.63;;
67798;SDS011;54596;43.216;27.904;2023-03-02T09:47:53;36.72;;;19.73;;
67798;SDS011;54596;43.216;27.904;2023-03-02T09:50:33;39.88;;;19.08;;
67798;SDS011;54596;43.216;27.904;2023-03-02T09:53:16;25.60;;;16.23;;
67798;SDS011;54596;43.216;27.904;2023-03-02T09:55:57;27.15;;;16.77;;
67798;SDS011;54596;43.216;27.904;2023-03-02T09:58:47;23.10;;;15.13;;
67798;SDS011;54596;43.216;27.904;2023-03-02T10:01:20;37.85;;;16.80;;
67798;SDS011;54596;43.216;27.904;2023-03-02T10:03:58;26.55;;;14.95;;
67798;SDS011;54596;43.216;27.904;2023-03-02T10:06:33;29.33;;;16.27;;
67798;SDS011;54596;43.216;27.904;2023-03-02T10:09:00;25.10;;;16.92;;
67798;SDS011;54596;43.216;27.904;2023-03-02T10:11:43;25.10;;;15.65;;
67798;SDS011;54596;43.216;27.904;2023-03-02T10:14:33;22.63;;;14.95;;
67798;SDS011;54596;43.216;27.904;2023-03-02T10:19:40;24.50;;;16.23;;
67798;SDS011;54596;43.216;27.904;2023-03-02T10:22:21;29.55;;;17.05;;
67798;SDS011;54596;43.216;27.904;2023-03-02T10:25:03;26.90;;;15.90;;
67798;SDS011;54596;43.216;27.904;2023-03-02T10:27:35;24.67;;;15.55;;
67798;SDS011;54596;43.216;27.904;2023-03-02T10:32:42;31.98;;;18.48;;
67798;SDS011;54596;43.216;27.904;2023-03-02T10:35:28;30.50;;;16.02;;
67798;SDS011;54596;43.216;27.904;2023-03-02T10:38:01;28.33;;;17.20;;
67798;SDS011;54596;43.216;27.904;2023-03-02T10:43:13;25.65;;;17.52;;
67798;SDS011;54596;43.216;27.904;2023-03-02T10:45:40;25.77;;;16.90;;
67798;SDS011;54596;43.216;27.904;2023-03-02T10:48:09;25.15;;;16.75;;
67798;SDS011;54596;43.216;27.904;2023-03-02T10:50:36;24.50;;;16.73;;
67798;SDS011;54596;43.216;27.904;2023-03-02T10:53:05;23.17;;;17.25;;
67798;SDS011;54596;43.216;27.904;2023-03-02T10:55:32;28.55;;;18.00;;
67798;SDS011;54596;43.216;27.904;2023-03-02T11:00:25;23.27;;;17.05;;
67798;SDS011;54596;43.216;27.904;2023-03-02T11:02:53;25.65;;;17.63;;
67798;SDS011;54596;43.216;27.904;2023-03-02T11:05:28;25.13;;;16.90;;
67798;SDS011;54596;43.216;27.904;2023-03-02T11:08:00;28.50;;;16.92;;
67798;SDS011;54596;43.216;27.904;2023-03-02T11:10:34;32.92;;;18.13;;
67798;SDS011;54596;43.216;27.904;2023-03-02T11:13:19;25.83;;;17.60;;
67798;SDS011;54596;43.216;27.904;2023-03-02T11:15:51;26.67;;;17.27;;
67798;SDS011;54596;43.216;27.904;2023-03-02T11:21:22;29.10;;;18.30;;
67798;SDS011;54596;43.216;27.904;2023-03-02T11:34:59;27.52;;;18.98;;
67798;SDS011;54596;43.216;27.904;2023-03-02T11:37:29;27.63;;;19.98;;
67798;SDS011;54596;43.216;27.904;2023-03-02T11:40:04;30.15;;;20.92;;
67798;SDS011;54596;43.216;27.904;2023-03-02T11:42:37;27.10;;;19.63;;
67798;SDS011;54596;43.216;27.904;2023-03-02T11:45:19;29.30;;;19.00;;
67798;SDS011;54596;43.216;27.904;2023-03-02T11:47:51;27.65;;;19.67;;
67798;SDS011;54596;43.216;27.904;2023-03-02T11:50:20;29.90;;;19.63;;
67798;SDS011;54596;43.216;27.904;2023-03-02T11:52:48;25.80;;;18.30;;
67798;SDS011;54596;43.216;27.904;2023-03-02T11:55:26;28.85;;;19.75;;
67798;SDS011;54596;43.216;27.904;2023-03-02T11:57:56;31.33;;;19.80;;
67798;SDS011;54596;43.216;27.904;2023-03-02T12:00:35;28.00;;;19.00;;
67798;SDS011;54596;43.216;27.904;2023-03-02T12:03:04;32.13;;;19.50;;
67798;SDS011;54596;43.216;27.904;2023-03-02T12:05:39;29.17;;;18.98;;
67798;SDS011;54596;43.216;27.904;2023-03-02T12:08:52;31.25;;;19.70;;
67798;SDS011;54596;43.216;27.904;2023-03-02T12:16:41;27.35;;;19.13;;
67798;SDS011;54596;43.216;27.904;2023-03-02T12:19:24;28.10;;;17.88;;
67798;SDS011;54596;43.216;27.904;2023-03-02T12:21:55;26.83;;;18.15;;
67798;SDS011;54596;43.216;27.904;2023-03-02T12:24:23;25.98;;;17.08;;
67798;SDS011;54596;43.216;27.904;2023-03-02T12:27:04;25.63;;;18.90;;
67798;SDS011;54596;43.216;27.904;2023-03-02T12:30:19;28.27;;;18.00;;
67798;SDS011;54596;43.216;27.904;2023-03-02T12:32:45;25.23;;;17.73;;
67798;SDS011;54596;43.216;27.904;2023-03-02T12:35:22;27.17;;;17.05;;
67798;SDS011;54596;43.216;27.904;2023-03-02T12:37:49;23.65;;;16.45;;
67798;SDS011;54596;43.216;27.904;2023-03-02T12:40:27;26.00;;;17.48;;
67798;SDS011;54596;43.216;27.904;2023-03-02T12:45:26;27.90;;;17.67;;
67798;SDS011;54596;43.216;27.904;2023-03-02T12:48:14;22.85;;;16.15;;
67798;SDS011;54596;43.216;27.904;2023-03-02T12:50:47;23.65;;;16.20;;
67798;SDS011;54596;43.216;27.904;2023-03-02T12:53:16;24.55;;;16.95;;
67798;SDS011;54596;43.216;27.904;2023-03-02T12:55:44;27.50;;;17.33;;
67798;SDS011;54596;43.216;27.904;2023-03-02T12:58:20;22.67;;;16.27;;
67798;SDS011;54596;43.216;27.904;2023-03-02T13:00:48;28.75;;;17.38;;
67798;SDS011;54596;43.216;27.904;2023-03-02T13:03:16;27.88;;;17.73;;
67798;SDS011;54596;43.216;27.904;2023-03-02T13:05:42;23.77;;;16.83;;
67798;SDS011;54596;43.216;27.904;2023-03-02T13:08:16;24.65;;;16.92;;
67798;SDS011;54596;43.216;27.904;2023-03-02T13:13:22;25.45;;;17.70;;
67798;SDS011;54596;43.216;27.904;2023-03-02T13:18:18;28.27;;;18.38;;
67798;SDS011;54596;43.216;27.904;2023-03-02T13:20:45;26.83;;;17.73;;
67798;SDS011;54596;43.216;27.904;2023-03-02T13:23:12;27.58;;;17.77;;
67798;SDS011;54596;43.216;27.904;2023-03-02T13:25:45;28.02;;;18.63;;
67798;SDS011;54596;43.216;27.904;2023-03-02T13:31:01;24.95;;;17.48;;
67798;SDS011;54596;43.216;27.904;2023-03-02T13:33:31;26.10;;;17.63;;
67798;SDS011;54596;43.216;27.904;2023-03-02T13:35:58;28.05;;;18.90;;
67798;SDS011;54596;43.216;27.904;2023-03-02T13:38:25;29.50;;;18.55;;
67798;SDS011;54596;43.216;27.904;2023-03-02T13:40:54;26.45;;;18.52;;
67798;SDS011;54596;43.216;27.904;2023-03-02T13:43:38;25.05;;;17.98;;
67798;SDS011;54596;43.216;27.904;2023-03-02T13:48:36;25.63;;;17.33;;
67798;SDS011;54596;43.216;27.904;2023-03-02T13:51:03;28.48;;;18.13;;
67798;SDS011;54596;43.216;27.904;2023-03-02T13:53:41;27.67;;;18.83;;
67798;SDS011;54596;43.216;27.904;2023-03-02T13:56:10;27.73;;;18.42;;
67798;SDS011;54596;43.216;27.904;2023-03-02T13:58:40;26.38;;;17.08;;
67798;SDS011;54596;43.216;27.904;2023-03-02T14:01:06;27.95;;;16.48;;
67798;SDS011;54596;43.216;27.904;2023-03-02T14:03:31;24.70;;;16.15;;
67798;SDS011;54596;43.216;27.904;2023-03-02T14:05:57;24.80;;;17.00;;
67798;SDS011;54596;43.216;27.904;2023-03-02T14:08:23;24.42;;;16.00;;
67798;SDS011;54596;43.216;27.904;2023-03-02T14:10:50;25.02;;;16.25;;
67798;SDS011;54596;43.216;27.904;2023-03-02T14:13:20;28.85;;;16.45;;
67798;SDS011;54596;43.216;27.904;2023-03-02T14:15:48;24.02;;;15.48;;
67798;SDS011;54596;43.216;27.904;2023-03-02T14:21:11;25.65;;;14.85;;
67798;SDS011;54596;43.216;27.904;2023-03-02T14:23:41;24.20;;;14.52;;
67798;SDS011;54596;43.216;27.904;2023-03-02T14:26:22;21.50;;;15.18;;
67798;SDS011;54596;43.216;27.904;2023-03-02T14:31:51;22.48;;;14.32;;
67798;SDS011;54596;43.216;27.904;2023-03-02T14:34:18;28.05;;;14.25;;
67798;SDS011;54596;43.216;27.904;2023-03-02T14:36:44;23.80;;;14.65;;
67798;SDS011;54596;43.216;27.904;2023-03-02T14:39:18;26.33;;;14.63;;
67798;SDS011;54596;43.216;27.904;2023-03-02T14:41:44;21.30;;;12.88;;
67798;SDS011;54596;43.216;27.904;2023-03-02T14:44:10;24.08;;;13.88;;
67798;SDS011;54596;43.216;27.904;2023-03-02T14:46:35;25.10;;;14.00;;
67798;SDS011;54596;43.216;27.904;2023-03-02T14:49:01;21.75;;;13.70;;
67798;SDS011;54596;43.216;27.904;2023-03-02T14:51:27;23.02;;;13.25;;
67798;SDS011;54596;43.216;27.904;2023-03-02T14:53:57;25.40;;;13.98;;
67798;SDS011;54596;43.216;27.904;2023-03-02T14:56:25;23.00;;;14.05;;
67798;SDS011;54596;43.216;27.904;2023-03-02T14:58:52;22.17;;;12.90;;
67798;SDS011;54596;43.216;27.904;2023-03-02T15:01:18;26.15;;;13.38;;
67798;SDS011;54596;43.216;27.904;2023-03-02T15:03:44;21.77;;;13.55;;
67798;SDS011;54596;43.216;27.904;2023-03-02T15:08:47;30.58;;;16.17;;
67798;SDS011;54596;43.216;27.904;2023-03-02T15:11:13;22.88;;;13.73;;
67798;SDS011;54596;43.216;27.904;2023-03-02T15:13:38;23.27;;;13.60;;
67798;SDS011;54596;43.216;27.904;2023-03-02T15:16:05;23.00;;;12.80;;
67798;SDS011;54596;43.216;27.904;2023-03-02T15:18:33;22.40;;;13.45;;
67798;SDS011;54596;43.216;27.904;2023-03-02T15:20:59;28.25;;;14.00;;
67798;SDS011;54596;43.216;27.904;2023-03-02T15:23:25;26.08;;;14.13;;
67798;SDS011;54596;43.216;27.904;2023-03-02T15:25:50;23.90;;;13.00;;
67798;SDS011;54596;43.216;27.904;2023-03-02T15:28:16;22.25;;;13.50;;